sensor_id;sensor_type;location;lat;lon;timestamp;P1;durP1;ratioP1;P2;durP2;ratioP2
9485;SDS011;4781;48.776;9.200;2023-06-22T00:01:35;9.25;;;7.03;;
9485;SDS011;4781;48.776;9.200;2023-06-22T00:04:03;10.90;;;7.65;;
9485;SDS011;4781;48.776;9.200;2023-06-22T00:06:32;12.03;;;7.55;;
9485;SDS011;4781;48.776;9.200;2023-06-22T00:09:00;9.53;;;7.08;;
9485;SDS011;4781;48.776;9.200;2023-06-22T00:11:29;10.82;;;6.97;;
9485;SDS011;4781;48.776;9.200;2023-06-22T00:16:47;12.58;;;8.03;;
9485;SDS011;4781;48.776;9.200;2023-06-22T00:19:17;8.70;;;6.80;;
9485;SDS011;4781;48.776;9.200;2023-06-22T00:21:47;11.18;;;7.55;;
9485;SDS011;4781;48.776;9.200;2023-06-22T00:24:18;10.28;;;7.50;;
9485;SDS011;4781;48.776;9.200;2023-06-22T00:26:48;8.43;;;6.47;;
9485;SDS011;4781;48.776;9.200;2023-06-22T00:29:16;10.60;;;7.28;;
9485;SDS011;4781;48.776;9.200;2023-06-22T00:31:45;12.45;;;6.70;;
9485;SDS011;4781;48.776;9.200;2023-06-22T00:34:13;9.35;;;6.75;;
9485;SDS011;4781;48.776;9.200;2023-06-22T00:36:41;10.93;;;6.78;;
9485;SDS011;4781;48.776;9.200;2023-06-22T00:39:10;12.50;;;7.08;;
9485;SDS011;4781;48.776;9.200;2023-06-22T00:41:40;9.55;;;6.92;;
9485;SDS011;4781;48.776;9.200;2023-06-22T00:44:08;12.30;;;7.30;;
9485;SDS011;4781;48.776;9.200;2023-06-22T00:46:36;10.95;;;6.87;;
9485;SDS011;4781;48.776;9.200;2023-06-22T00:49:05;9.08;;;7.03;;
9485;SDS011;4781;48.776;9.200;2023-06-22T00:51:33;12.60;;;7.30;;
9485;SDS011;4781;48.776;9.200;2023-06-22T00:54:04;10.18;;;6.75;;
9485;SDS011;4781;48.776;9.200;2023-06-22T00:56:32;11.97;;;7.25;;
9485;SDS011;4781;48.776;9.200;2023-06-22T00:59:03;12.70;;;7.85;;
9485;SDS011;4781;48.776;9.200;2023-06-22T01:01:31;9.03;;;7.17;;
9485;SDS011;4781;48.776;9.200;2023-06-22T01:04:00;11.00;;;7.50;;
9485;SDS011;4781;48.776;9.200;2023-06-22T01:06:33;10.80;;;7.12;;
9485;SDS011;4781;48.776;9.200;2023-06-22T01:09:19;11.35;;;7.10;;
9485;SDS011;4781;48.776;9.200;2023-06-22T01:11:54;11.33;;;7.60;;
9485;SDS011;4781;48.776;9.200;2023-06-22T01:14:40;10.72;;;7.85;;
9485;SDS011;4781;48.776;9.200;2023-06-22T01:17:10;12.25;;;8.65;;
9485;SDS011;4781;48.776;9.200;2023-06-22T01:19:43;11.28;;;7.95;;
9485;SDS011;4781;48.776;9.200;2023-06-22T01:22:25;10.15;;;7.55;;
9485;SDS011;4781;48.776;9.200;2023-06-22T01:25:06;11.68;;;7.53;;
9485;SDS011;4781;48.776;9.200;2023-06-22T01:27:39;10.98;;;7.12;;
9485;SDS011;4781;48.776;9.200;2023-06-22T01:30:10;9.93;;;6.93;;
9485;SDS011;4781;48.776;9.200;2023-06-22T01:32:41;12.10;;;7.50;;
9485;SDS011;4781;48.776;9.200;2023-06-22T01:35:10;9.03;;;7.15;;
9485;SDS011;4781;48.776;9.200;2023-06-22T01:37:39;10.78;;;7.50;;
9485;SDS011;4781;48.776;9.200;2023-06-22T01:40:08;11.85;;;8.15;;
9485;SDS011;4781;48.776;9.200;2023-06-22T01:42:37;11.35;;;7.75;;
9485;SDS011;4781;48.776;9.200;2023-06-22T01:45:06;11.10;;;7.40;;
9485;SDS011;4781;48.776;9.200;2023-06-22T01:47:36;10.98;;;7.47;;
9485;SDS011;4781;48.776;9.200;2023-06-22T01:50:06;9.88;;;7.15;;
9485;SDS011;4781;48.776;9.200;2023-06-22T01:52:35;12.50;;;7.47;;
9485;SDS011;4781;48.776;9.200;2023-06-22T01:55:03;10.85;;;7.60;;
9485;SDS011;4781;48.776;9.200;2023-06-22T01:57:33;11.40;;;7.90;;
9485;SDS011;4781;48.776;9.200;2023-06-22T02:00:09;12.16;;;7.76;;
9485;SDS011;4781;48.776;9.200;2023-06-22T02:02:46;9.98;;;7.60;;
9485;SDS011;4781;48.776;9.200;2023-06-22T02:05:21;11.35;;;7.60;;
9485;SDS011;4781;48.776;9.200;2023-06-22T02:08:00;10.60;;;7.67;;
9485;SDS011;4781;48.776;9.200;2023-06-22T02:10:43;11.38;;;7.62;;
9485;SDS011;4781;48.776;9.200;2023-06-22T02:13:12;11.48;;;7.80;;
9485;SDS011;4781;48.776;9.200;2023-06-22T02:15:41;10.63;;;8.00;;
9485;SDS011;4781;48.776;9.200;2023-06-22T02:18:10;11.28;;;7.85;;
9485;SDS011;4781;48.776;9.200;2023-06-22T02:20:39;11.25;;;8.23;;
9485;SDS011;4781;48.776;9.200;2023-06-22T02:23:08;10.28;;;7.55;;
9485;SDS011;4781;48.776;9.200;2023-06-22T02:25:36;11.97;;;7.80;;
9485;SDS011;4781;48.776;9.200;2023-06-22T02:28:05;10.60;;;8.05;;
9485;SDS011;4781;48.776;9.200;2023-06-22T02:30:33;11.65;;;8.28;;
9485;SDS011;4781;48.776;9.200;2023-06-22T02:33:02;11.33;;;7.65;;
9485;SDS011;4781;48.776;9.200;2023-06-22T02:35:30;11.12;;;7.87;;
9485;SDS011;4781;48.776;9.200;2023-06-22T02:38:01;13.65;;;8.23;;
9485;SDS011;4781;48.776;9.200;2023-06-22T02:40:31;10.80;;;7.80;;
9485;SDS011;4781;48.776;9.200;2023-06-22T02:42:59;10.58;;;8.18;;
9485;SDS011;4781;48.776;9.200;2023-06-22T02:45:28;11.80;;;8.13;;
9485;SDS011;4781;48.776;9.200;2023-06-22T02:47:57;11.83;;;8.13;;
9485;SDS011;4781;48.776;9.200;2023-06-22T02:50:25;10.90;;;7.85;;
9485;SDS011;4781;48.776;9.200;2023-06-22T02:52:54;10.93;;;8.00;;
9485;SDS011;4781;48.776;9.200;2023-06-22T02:55:22;10.90;;;8.35;;
9485;SDS011;4781;48.776;9.200;2023-06-22T02:57:50;9.60;;;7.97;;
9485;SDS011;4781;48.776;9.200;2023-06-22T03:00:19;11.63;;;7.87;;
9485;SDS011;4781;48.776;9.200;2023-06-22T03:02:48;11.30;;;8.93;;
9485;SDS011;4781;48.776;9.200;2023-06-22T03:05:17;12.50;;;7.90;;
9485;SDS011;4781;48.776;9.200;2023-06-22T03:07:45;12.45;;;8.78;;
9485;SDS011;4781;48.776;9.200;2023-06-22T03:10:14;10.43;;;8.30;;
9485;SDS011;4781;48.776;9.200;2023-06-22T03:12:43;9.58;;;7.28;;
9485;SDS011;4781;48.776;9.200;2023-06-22T03:15:12;11.05;;;8.00;;
9485;SDS011;4781;48.776;9.200;2023-06-22T03:17:40;12.47;;;8.68;;
9485;SDS011;4781;48.776;9.200;2023-06-22T03:20:09;13.58;;;8.83;;
9485;SDS011;4781;48.776;9.200;2023-06-22T03:22:40;11.18;;;8.30;;
9485;SDS011;4781;48.776;9.200;2023-06-22T03:25:09;11.25;;;8.53;;
9485;SDS011;4781;48.776;9.200;2023-06-22T03:27:40;11.30;;;8.80;;
9485;SDS011;4781;48.776;9.200;2023-06-22T03:30:11;12.70;;;10.20;;
9485;SDS011;4781;48.776;9.200;2023-06-22T03:32:40;13.35;;;9.73;;
9485;SDS011;4781;48.776;9.200;2023-06-22T03:35:09;14.78;;;10.10;;
9485;SDS011;4781;48.776;9.200;2023-06-22T03:37:39;13.00;;;8.90;;
9485;SDS011;4781;48.776;9.200;2023-06-22T03:40:10;10.58;;;8.30;;
9485;SDS011;4781;48.776;9.200;2023-06-22T03:42:38;11.35;;;8.65;;
9485;SDS011;4781;48.776;9.200;2023-06-22T03:45:07;11.25;;;8.63;;
9485;SDS011;4781;48.776;9.200;2023-06-22T03:47:37;11.25;;;8.18;;
9485;SDS011;4781;48.776;9.200;2023-06-22T03:50:05;13.35;;;9.53;;
9485;SDS011;4781;48.776;9.200;2023-06-22T03:52:34;13.43;;;9.00;;
9485;SDS011;4781;48.776;9.200;2023-06-22T03:55:02;12.80;;;8.90;;
9485;SDS011;4781;48.776;9.200;2023-06-22T03:57:32;11.97;;;8.45;;
9485;SDS011;4781;48.776;9.200;2023-06-22T04:00:01;11.12;;;8.13;;
9485;SDS011;4781;48.776;9.200;2023-06-22T04:02:33;13.13;;;8.83;;
9485;SDS011;4781;48.776;9.200;2023-06-22T04:05:02;10.70;;;8.53;;
9485;SDS011;4781;48.776;9.200;2023-06-22T04:07:30;11.70;;;9.43;;
9485;SDS011;4781;48.776;9.200;2023-06-22T04:09:59;15.32;;;9.03;;
9485;SDS011;4781;48.776;9.200;2023-06-22T04:12:27;15.58;;;8.90;;
9485;SDS011;4781;48.776;9.200;2023-06-22T04:14:56;13.20;;;8.65;;
9485;SDS011;4781;48.776;9.200;2023-06-22T04:17:24;9.25;;;7.85;;
9485;SDS011;4781;48.776;9.200;2023-06-22T04:19:52;11.08;;;9.08;;
9485;SDS011;4781;48.776;9.200;2023-06-22T04:22:21;12.23;;;8.20;;
9485;SDS011;4781;48.776;9.200;2023-06-22T04:24:49;10.28;;;8.23;;
9485;SDS011;4781;48.776;9.200;2023-06-22T04:27:18;11.25;;;8.55;;
9485;SDS011;4781;48.776;9.200;2023-06-22T04:29:48;10.98;;;8.78;;
9485;SDS011;4781;48.776;9.200;2023-06-22T04:32:17;13.53;;;8.53;;
9485;SDS011;4781;48.776;9.200;2023-06-22T04:34:46;11.48;;;9.18;;
9485;SDS011;4781;48.776;9.200;2023-06-22T04:37:14;9.43;;;8.03;;
9485;SDS011;4781;48.776;9.200;2023-06-22T04:39:43;10.38;;;8.75;;
9485;SDS011;4781;48.776;9.200;2023-06-22T04:42:12;12.63;;;8.70;;
9485;SDS011;4781;48.776;9.200;2023-06-22T04:44:40;11.73;;;8.80;;
9485;SDS011;4781;48.776;9.200;2023-06-22T04:47:08;12.80;;;8.75;;
9485;SDS011;4781;48.776;9.200;2023-06-22T04:49:37;14.63;;;9.10;;
9485;SDS011;4781;48.776;9.200;2023-06-22T04:52:08;13.68;;;9.50;;
9485;SDS011;4781;48.776;9.200;2023-06-22T04:54:39;14.85;;;9.78;;
9485;SDS011;4781;48.776;9.200;2023-06-22T04:57:10;12.28;;;9.75;;
9485;SDS011;4781;48.776;9.200;2023-06-22T04:59:38;13.13;;;9.85;;
9485;SDS011;4781;48.776;9.200;2023-06-22T05:02:07;12.67;;;9.53;;
9485;SDS011;4781;48.776;9.200;2023-06-22T05:04:36;15.72;;;9.95;;
9485;SDS011;4781;48.776;9.200;2023-06-22T05:07:08;11.68;;;9.48;;
9485;SDS011;4781;48.776;9.200;2023-06-22T05:09:37;14.07;;;10.03;;
9485;SDS011;4781;48.776;9.200;2023-06-22T05:12:05;13.40;;;10.60;;
9485;SDS011;4781;48.776;9.200;2023-06-22T05:14:34;15.72;;;10.50;;
9485;SDS011;4781;48.776;9.200;2023-06-22T05:17:03;16.10;;;10.85;;
9485;SDS011;4781;48.776;9.200;2023-06-22T05:19:33;14.35;;;10.30;;
9485;SDS011;4781;48.776;9.200;2023-06-22T05:22:01;13.65;;;10.82;;
9485;SDS011;4781;48.776;9.200;2023-06-22T05:24:32;15.63;;;10.50;;
9485;SDS011;4781;48.776;9.200;2023-06-22T05:27:00;13.68;;;9.70;;
9485;SDS011;4781;48.776;9.200;2023-06-22T05:29:29;15.58;;;9.65;;
9485;SDS011;4781;48.776;9.200;2023-06-22T05:31:57;14.68;;;9.73;;
9485;SDS011;4781;48.776;9.200;2023-06-22T05:34:26;14.13;;;9.28;;
9485;SDS011;4781;48.776;9.200;2023-06-22T05:36:54;13.30;;;8.65;;
9485;SDS011;4781;48.776;9.200;2023-06-22T05:39:24;13.38;;;8.70;;
9485;SDS011;4781;48.776;9.200;2023-06-22T05:41:53;13.62;;;8.60;;
9485;SDS011;4781;48.776;9.200;2023-06-22T05:44:21;11.15;;;9.10;;
9485;SDS011;4781;48.776;9.200;2023-06-22T05:46:49;13.32;;;8.73;;
9485;SDS011;4781;48.776;9.200;2023-06-22T05:49:18;13.30;;;8.33;;
9485;SDS011;4781;48.776;9.200;2023-06-22T05:51:48;14.25;;;8.50;;
9485;SDS011;4781;48.776;9.200;2023-06-22T05:54:16;12.28;;;8.25;;
9485;SDS011;4781;48.776;9.200;2023-06-22T05:56:45;14.43;;;8.00;;
9485;SDS011;4781;48.776;9.200;2023-06-22T05:59:13;15.35;;;7.97;;
9485;SDS011;4781;48.776;9.200;2023-06-22T06:01:42;13.98;;;7.50;;
9485;SDS011;4781;48.776;9.200;2023-06-22T06:04:10;11.68;;;8.08;;
9485;SDS011;4781;48.776;9.200;2023-06-22T06:06:39;11.18;;;7.20;;
9485;SDS011;4781;48.776;9.200;2023-06-22T06:09:10;11.45;;;7.17;;
9485;SDS011;4781;48.776;9.200;2023-06-22T06:11:38;10.85;;;8.05;;
9485;SDS011;4781;48.776;9.200;2023-06-22T06:14:08;9.95;;;6.75;;
9485;SDS011;4781;48.776;9.200;2023-06-22T06:16:36;10.90;;;7.00;;
9485;SDS011;4781;48.776;9.200;2023-06-22T06:19:05;10.95;;;7.25;;
9485;SDS011;4781;48.776;9.200;2023-06-22T06:21:33;10.10;;;6.72;;
9485;SDS011;4781;48.776;9.200;2023-06-22T06:24:01;12.93;;;7.95;;
9485;SDS011;4781;48.776;9.200;2023-06-22T06:26:30;9.83;;;6.67;;
9485;SDS011;4781;48.776;9.200;2023-06-22T06:29:00;11.15;;;7.15;;
9485;SDS011;4781;48.776;9.200;2023-06-22T06:31:29;10.48;;;6.60;;
9485;SDS011;4781;48.776;9.200;2023-06-22T06:33:57;10.80;;;6.87;;
9485;SDS011;4781;48.776;9.200;2023-06-22T06:36:26;9.65;;;6.37;;
9485;SDS011;4781;48.776;9.200;2023-06-22T06:38:54;9.63;;;6.60;;
9485;SDS011;4781;48.776;9.200;2023-06-22T06:41:22;9.38;;;6.78;;
9485;SDS011;4781;48.776;9.200;2023-06-22T06:43:51;10.80;;;6.58;;
9485;SDS011;4781;48.776;9.200;2023-06-22T06:46:19;9.40;;;6.55;;
9485;SDS011;4781;48.776;9.200;2023-06-22T06:48:48;9.95;;;6.80;;
9485;SDS011;4781;48.776;9.200;2023-06-22T06:51:16;10.80;;;6.28;;
9485;SDS011;4781;48.776;9.200;2023-06-22T06:53:44;9.48;;;6.10;;
9485;SDS011;4781;48.776;9.200;2023-06-22T06:56:13;10.72;;;6.20;;
9485;SDS011;4781;48.776;9.200;2023-06-22T06:58:41;10.38;;;6.37;;
9485;SDS011;4781;48.776;9.200;2023-06-22T07:01:11;9.90;;;6.55;;
9485;SDS011;4781;48.776;9.200;2023-06-22T07:03:40;10.30;;;6.22;;
9485;SDS011;4781;48.776;9.200;2023-06-22T07:06:08;10.08;;;6.17;;
9485;SDS011;4781;48.776;9.200;2023-06-22T07:08:37;10.35;;;6.28;;
9485;SDS011;4781;48.776;9.200;2023-06-22T07:11:05;8.45;;;5.92;;
9485;SDS011;4781;48.776;9.200;2023-06-22T07:13:34;9.83;;;6.00;;
9485;SDS011;4781;48.776;9.200;2023-06-22T07:16:02;9.93;;;5.92;;
9485;SDS011;4781;48.776;9.200;2023-06-22T07:18:31;9.50;;;5.80;;
9485;SDS011;4781;48.776;9.200;2023-06-22T07:20:59;10.40;;;5.95;;
9485;SDS011;4781;48.776;9.200;2023-06-22T07:23:29;12.13;;;6.05;;
9485;SDS011;4781;48.776;9.200;2023-06-22T07:25:58;12.45;;;6.03;;
9485;SDS011;4781;48.776;9.200;2023-06-22T07:28:31;11.93;;;5.58;;
9485;SDS011;4781;48.776;9.200;2023-06-22T07:31:01;10.40;;;6.35;;
9485;SDS011;4781;48.776;9.200;2023-06-22T07:33:30;10.78;;;5.70;;
9485;SDS011;4781;48.776;9.200;2023-06-22T07:35:58;11.25;;;5.65;;
9485;SDS011;4781;48.776;9.200;2023-06-22T07:38:28;8.25;;;5.42;;
9485;SDS011;4781;48.776;9.200;2023-06-22T07:40:56;7.55;;;5.08;;
9485;SDS011;4781;48.776;9.200;2023-06-22T07:43:25;9.35;;;5.55;;
9485;SDS011;4781;48.776;9.200;2023-06-22T07:45:55;11.55;;;5.50;;
9485;SDS011;4781;48.776;9.200;2023-06-22T07:48:23;9.23;;;5.80;;
9485;SDS011;4781;48.776;9.200;2023-06-22T07:50:51;11.45;;;5.70;;
9485;SDS011;4781;48.776;9.200;2023-06-22T07:53:20;12.05;;;5.58;;
9485;SDS011;4781;48.776;9.200;2023-06-22T07:55:49;9.88;;;5.83;;
9485;SDS011;4781;48.776;9.200;2023-06-22T07:58:18;10.43;;;5.80;;
9485;SDS011;4781;48.776;9.200;2023-06-22T08:00:46;10.15;;;5.83;;
9485;SDS011;4781;48.776;9.200;2023-06-22T08:03:15;9.28;;;5.90;;
9485;SDS011;4781;48.776;9.200;2023-06-22T08:05:43;9.23;;;5.45;;
9485;SDS011;4781;48.776;9.200;2023-06-22T08:08:12;9.48;;;5.42;;
9485;SDS011;4781;48.776;9.200;2023-06-22T08:10:40;10.80;;;5.90;;
9485;SDS011;4781;48.776;9.200;2023-06-22T08:13:09;13.58;;;6.00;;
9485;SDS011;4781;48.776;9.200;2023-06-22T08:15:38;9.40;;;5.00;;
9485;SDS011;4781;48.776;9.200;2023-06-22T08:18:06;9.30;;;5.30;;
9485;SDS011;4781;48.776;9.200;2023-06-22T08:20:34;11.65;;;5.45;;
9485;SDS011;4781;48.776;9.200;2023-06-22T08:23:03;7.67;;;4.87;;
9485;SDS011;4781;48.776;9.200;2023-06-22T08:25:35;11.03;;;5.30;;
9485;SDS011;4781;48.776;9.200;2023-06-22T08:28:03;8.63;;;5.28;;
9485;SDS011;4781;48.776;9.200;2023-06-22T08:30:32;11.93;;;5.25;;
9485;SDS011;4781;48.776;9.200;2023-06-22T08:33:01;13.15;;;4.87;;
9485;SDS011;4781;48.776;9.200;2023-06-22T08:35:29;9.43;;;5.12;;
9485;SDS011;4781;48.776;9.200;2023-06-22T08:37:58;8.48;;;4.60;;
9485;SDS011;4781;48.776;9.200;2023-06-22T08:40:27;10.43;;;5.53;;
9485;SDS011;4781;48.776;9.200;2023-06-22T08:42:56;13.18;;;5.83;;
9485;SDS011;4781;48.776;9.200;2023-06-22T08:45:24;9.33;;;5.05;;
9485;SDS011;4781;48.776;9.200;2023-06-22T08:47:53;9.08;;;5.22;;
9485;SDS011;4781;48.776;9.200;2023-06-22T08:50:21;9.50;;;5.12;;
9485;SDS011;4781;48.776;9.200;2023-06-22T08:52:49;11.73;;;5.65;;
9485;SDS011;4781;48.776;9.200;2023-06-22T08:55:18;11.10;;;4.80;;
9485;SDS011;4781;48.776;9.200;2023-06-22T08:57:46;10.65;;;4.83;;
9485;SDS011;4781;48.776;9.200;2023-06-22T09:00:15;14.00;;;5.27;;
9485;SDS011;4781;48.776;9.200;2023-06-22T09:02:46;8.98;;;4.92;;
9485;SDS011;4781;48.776;9.200;2023-06-22T09:05:15;10.55;;;5.25;;
9485;SDS011;4781;48.776;9.200;2023-06-22T09:07:44;10.38;;;5.10;;
9485;SDS011;4781;48.776;9.200;2023-06-22T09:10:12;11.95;;;5.45;;
9485;SDS011;4781;48.776;9.200;2023-06-22T09:12:43;11.25;;;4.55;;
9485;SDS011;4781;48.776;9.200;2023-06-22T09:15:11;7.50;;;4.58;;
9485;SDS011;4781;48.776;9.200;2023-06-22T09:17:40;10.18;;;5.47;;
9485;SDS011;4781;48.776;9.200;2023-06-22T09:20:09;12.18;;;4.90;;
9485;SDS011;4781;48.776;9.200;2023-06-22T09:22:38;9.20;;;5.37;;
9485;SDS011;4781;48.776;9.200;2023-06-22T09:25:06;14.45;;;5.62;;
9485;SDS011;4781;48.776;9.200;2023-06-22T09:27:35;12.82;;;5.62;;
9485;SDS011;4781;48.776;9.200;2023-06-22T09:30:04;10.72;;;5.40;;
9485;SDS011;4781;48.776;9.200;2023-06-22T09:32:33;11.80;;;5.60;;
9485;SDS011;4781;48.776;9.200;2023-06-22T09:35:03;12.23;;;5.72;;
9485;SDS011;4781;48.776;9.200;2023-06-22T09:37:34;10.53;;;6.12;;
9485;SDS011;4781;48.776;9.200;2023-06-22T09:40:03;17.65;;;6.00;;
9485;SDS011;4781;48.776;9.200;2023-06-22T09:42:34;14.28;;;5.53;;
9485;SDS011;4781;48.776;9.200;2023-06-22T09:45:02;13.00;;;4.85;;
9485;SDS011;4781;48.776;9.200;2023-06-22T09:47:32;12.10;;;5.28;;
9485;SDS011;4781;48.776;9.200;2023-06-22T09:50:00;12.95;;;5.40;;
9485;SDS011;4781;48.776;9.200;2023-06-22T09:52:28;10.28;;;5.58;;
9485;SDS011;4781;48.776;9.200;2023-06-22T09:54:57;10.28;;;5.10;;
9485;SDS011;4781;48.776;9.200;2023-06-22T09:57:25;13.18;;;5.28;;
9485;SDS011;4781;48.776;9.200;2023-06-22T09:59:54;14.65;;;5.85;;
9485;SDS011;4781;48.776;9.200;2023-06-22T10:02:22;11.95;;;5.42;;
9485;SDS011;4781;48.776;9.200;2023-06-22T10:04:50;13.40;;;5.10;;
9485;SDS011;4781;48.776;9.200;2023-06-22T10:07:19;14.93;;;5.12;;
9485;SDS011;4781;48.776;9.200;2023-06-22T10:09:47;11.78;;;5.10;;
9485;SDS011;4781;48.776;9.200;2023-06-22T10:12:15;12.25;;;5.37;;
9485;SDS011;4781;48.776;9.200;2023-06-22T10:14:44;17.75;;;5.78;;
9485;SDS011;4781;48.776;9.200;2023-06-22T10:17:12;10.40;;;5.37;;
9485;SDS011;4781;48.776;9.200;2023-06-22T10:19:41;10.58;;;5.12;;
9485;SDS011;4781;48.776;9.200;2023-06-22T10:22:09;12.73;;;5.30;;
9485;SDS011;4781;48.776;9.200;2023-06-22T10:24:37;9.55;;;5.20;;
9485;SDS011;4781;48.776;9.200;2023-06-22T10:27:07;12.37;;;5.53;;
9485;SDS011;4781;48.776;9.200;2023-06-22T10:29:36;12.70;;;5.60;;
9485;SDS011;4781;48.776;9.200;2023-06-22T10:32:05;13.83;;;6.42;;
9485;SDS011;4781;48.776;9.200;2023-06-22T10:34:34;11.12;;;5.45;;
9485;SDS011;4781;48.776;9.200;2023-06-22T10:37:02;13.65;;;5.50;;
9485;SDS011;4781;48.776;9.200;2023-06-22T10:39:31;15.80;;;5.62;;
9485;SDS011;4781;48.776;9.200;2023-06-22T10:41:59;12.88;;;5.30;;
9485;SDS011;4781;48.776;9.200;2023-06-22T10:44:28;9.45;;;5.22;;
9485;SDS011;4781;48.776;9.200;2023-06-22T10:46:56;16.10;;;5.97;;
9485;SDS011;4781;48.776;9.200;2023-06-22T10:49:25;13.25;;;5.70;;
9485;SDS011;4781;48.776;9.200;2023-06-22T10:51:53;12.37;;;5.83;;
9485;SDS011;4781;48.776;9.200;2023-06-22T10:54:21;11.78;;;5.97;;
9485;SDS011;4781;48.776;9.200;2023-06-22T10:56:50;15.20;;;6.40;;
9485;SDS011;4781;48.776;9.200;2023-06-22T10:59:18;12.25;;;5.85;;
9485;SDS011;4781;48.776;9.200;2023-06-22T11:01:48;11.83;;;5.67;;
9485;SDS011;4781;48.776;9.200;2023-06-22T11:04:16;11.85;;;5.67;;
9485;SDS011;4781;48.776;9.200;2023-06-22T11:06:45;12.75;;;5.70;;
9485;SDS011;4781;48.776;9.200;2023-06-22T11:09:15;11.78;;;5.22;;
9485;SDS011;4781;48.776;9.200;2023-06-22T11:11:47;13.60;;;4.97;;
9485;SDS011;4781;48.776;9.200;2023-06-22T11:14:19;13.08;;;5.72;;
9485;SDS011;4781;48.776;9.200;2023-06-22T11:16:48;15.38;;;5.53;;
9485;SDS011;4781;48.776;9.200;2023-06-22T11:19:16;14.10;;;5.90;;
9485;SDS011;4781;48.776;9.200;2023-06-22T11:21:45;13.05;;;5.40;;
9485;SDS011;4781;48.776;9.200;2023-06-22T11:24:14;12.53;;;5.83;;
9485;SDS011;4781;48.776;9.200;2023-06-22T11:26:42;12.00;;;5.62;;
9485;SDS011;4781;48.776;9.200;2023-06-22T11:29:11;13.62;;;5.50;;
9485;SDS011;4781;48.776;9.200;2023-06-22T11:31:39;12.18;;;5.65;;
9485;SDS011;4781;48.776;9.200;2023-06-22T11:34:09;12.20;;;5.45;;
9485;SDS011;4781;48.776;9.200;2023-06-22T11:36:37;12.18;;;5.62;;
9485;SDS011;4781;48.776;9.200;2023-06-22T11:39:07;13.53;;;5.83;;
9485;SDS011;4781;48.776;9.200;2023-06-22T11:41:36;12.65;;;5.85;;
9485;SDS011;4781;48.776;9.200;2023-06-22T11:44:05;12.30;;;5.70;;
9485;SDS011;4781;48.776;9.200;2023-06-22T11:46:34;14.30;;;5.70;;
9485;SDS011;4781;48.776;9.200;2023-06-22T11:49:03;10.38;;;5.50;;
9485;SDS011;4781;48.776;9.200;2023-06-22T11:51:31;14.30;;;6.30;;
9485;SDS011;4781;48.776;9.200;2023-06-22T11:54:00;12.43;;;5.62;;
9485;SDS011;4781;48.776;9.200;2023-06-22T11:56:29;15.35;;;6.00;;
9485;SDS011;4781;48.776;9.200;2023-06-22T11:58:58;14.50;;;5.97;;
9485;SDS011;4781;48.776;9.200;2023-06-22T12:01:26;14.45;;;5.90;;
9485;SDS011;4781;48.776;9.200;2023-06-22T12:03:55;10.30;;;4.97;;
9485;SDS011;4781;48.776;9.200;2023-06-22T12:06:23;13.98;;;5.87;;
9485;SDS011;4781;48.776;9.200;2023-06-22T12:08:52;11.65;;;5.05;;
9485;SDS011;4781;48.776;9.200;2023-06-22T12:11:20;12.73;;;5.50;;
9485;SDS011;4781;48.776;9.200;2023-06-22T12:13:48;16.67;;;5.90;;
9485;SDS011;4781;48.776;9.200;2023-06-22T12:16:17;10.65;;;5.40;;
9485;SDS011;4781;48.776;9.200;2023-06-22T12:18:47;10.13;;;5.75;;
9485;SDS011;4781;48.776;9.200;2023-06-22T12:21:16;13.98;;;5.92;;
9485;SDS011;4781;48.776;9.200;2023-06-22T12:23:44;10.93;;;5.33;;
9485;SDS011;4781;48.776;9.200;2023-06-22T12:26:12;15.30;;;5.55;;
9485;SDS011;4781;48.776;9.200;2023-06-22T12:28:41;13.05;;;5.90;;
9485;SDS011;4781;48.776;9.200;2023-06-22T12:31:09;15.20;;;5.70;;
9485;SDS011;4781;48.776;9.200;2023-06-22T12:33:38;15.72;;;6.15;;
9485;SDS011;4781;48.776;9.200;2023-06-22T12:36:06;14.93;;;5.92;;
9485;SDS011;4781;48.776;9.200;2023-06-22T12:38:35;10.43;;;5.10;;
9485;SDS011;4781;48.776;9.200;2023-06-22T12:41:03;16.00;;;6.15;;
9485;SDS011;4781;48.776;9.200;2023-06-22T12:43:32;12.90;;;5.92;;
9485;SDS011;4781;48.776;9.200;2023-06-22T12:46:00;15.63;;;5.55;;
9485;SDS011;4781;48.776;9.200;2023-06-22T12:48:28;16.23;;;5.85;;
9485;SDS011;4781;48.776;9.200;2023-06-22T12:50:57;15.23;;;6.05;;
9485;SDS011;4781;48.776;9.200;2023-06-22T12:53:25;15.72;;;5.85;;
9485;SDS011;4781;48.776;9.200;2023-06-22T12:55:53;14.35;;;5.97;;
9485;SDS011;4781;48.776;9.200;2023-06-22T12:58:22;15.00;;;5.83;;
9485;SDS011;4781;48.776;9.200;2023-06-22T13:00:50;15.98;;;6.17;;
9485;SDS011;4781;48.776;9.200;2023-06-22T13:03:19;13.55;;;5.70;;
9485;SDS011;4781;48.776;9.200;2023-06-22T13:05:49;14.68;;;5.80;;
9485;SDS011;4781;48.776;9.200;2023-06-22T13:08:18;16.70;;;6.37;;
9485;SDS011;4781;48.776;9.200;2023-06-22T13:10:46;16.60;;;5.95;;
9485;SDS011;4781;48.776;9.200;2023-06-22T13:13:15;13.25;;;5.78;;
9485;SDS011;4781;48.776;9.200;2023-06-22T13:15:43;11.73;;;5.33;;
9485;SDS011;4781;48.776;9.200;2023-06-22T13:18:11;17.55;;;6.17;;
9485;SDS011;4781;48.776;9.200;2023-06-22T13:20:40;15.00;;;6.10;;
9485;SDS011;4781;48.776;9.200;2023-06-22T13:23:08;14.87;;;5.33;;
9485;SDS011;4781;48.776;9.200;2023-06-22T13:25:37;12.70;;;5.62;;
9485;SDS011;4781;48.776;9.200;2023-06-22T13:28:05;12.20;;;5.67;;
9485;SDS011;4781;48.776;9.200;2023-06-22T13:30:34;13.23;;;6.10;;
9485;SDS011;4781;48.776;9.200;2023-06-22T13:33:02;12.18;;;5.83;;
9485;SDS011;4781;48.776;9.200;2023-06-22T13:35:31;13.20;;;6.08;;
9485;SDS011;4781;48.776;9.200;2023-06-22T13:38:01;14.38;;;5.67;;
9485;SDS011;4781;48.776;9.200;2023-06-22T13:40:29;13.00;;;6.20;;
9485;SDS011;4781;48.776;9.200;2023-06-22T13:42:57;13.85;;;5.35;;
9485;SDS011;4781;48.776;9.200;2023-06-22T13:45:26;12.43;;;5.95;;
9485;SDS011;4781;48.776;9.200;2023-06-22T13:47:54;13.98;;;5.58;;
9485;SDS011;4781;48.776;9.200;2023-06-22T13:50:23;15.48;;;6.12;;
9485;SDS011;4781;48.776;9.200;2023-06-22T13:52:51;14.38;;;6.03;;
9485;SDS011;4781;48.776;9.200;2023-06-22T13:55:20;12.13;;;5.78;;
9485;SDS011;4781;48.776;9.200;2023-06-22T13:57:49;14.90;;;5.72;;
9485;SDS011;4781;48.776;9.200;2023-06-22T14:00:17;16.60;;;5.87;;
9485;SDS011;4781;48.776;9.200;2023-06-22T14:02:46;13.93;;;6.17;;
9485;SDS011;4781;48.776;9.200;2023-06-22T14:05:15;12.80;;;5.42;;
9485;SDS011;4781;48.776;9.200;2023-06-22T14:07:43;9.75;;;4.62;;
9485;SDS011;4781;48.776;9.200;2023-06-22T14:10:12;14.30;;;5.45;;
9485;SDS011;4781;48.776;9.200;2023-06-22T14:12:41;11.68;;;5.55;;
9485;SDS011;4781;48.776;9.200;2023-06-22T14:15:09;12.95;;;5.53;;
9485;SDS011;4781;48.776;9.200;2023-06-22T14:17:37;15.32;;;5.40;;
9485;SDS011;4781;48.776;9.200;2023-06-22T14:20:06;18.95;;;6.12;;
9485;SDS011;4781;48.776;9.200;2023-06-22T14:22:35;13.13;;;5.00;;
9485;SDS011;4781;48.776;9.200;2023-06-22T14:25:05;14.93;;;5.60;;
9485;SDS011;4781;48.776;9.200;2023-06-22T14:27:34;13.55;;;4.92;;
9485;SDS011;4781;48.776;9.200;2023-06-22T14:30:04;14.80;;;5.60;;
9485;SDS011;4781;48.776;9.200;2023-06-22T14:32:33;15.72;;;5.33;;
9485;SDS011;4781;48.776;9.200;2023-06-22T14:35:01;14.73;;;5.15;;
9485;SDS011;4781;48.776;9.200;2023-06-22T14:37:30;13.53;;;5.10;;
9485;SDS011;4781;48.776;9.200;2023-06-22T14:39:58;14.47;;;5.22;;
9485;SDS011;4781;48.776;9.200;2023-06-22T14:42:27;16.95;;;5.12;;
9485;SDS011;4781;48.776;9.200;2023-06-22T14:44:56;15.72;;;4.85;;
9485;SDS011;4781;48.776;9.200;2023-06-22T14:47:24;13.50;;;4.53;;
9485;SDS011;4781;48.776;9.200;2023-06-22T14:49:52;14.43;;;4.62;;
9485;SDS011;4781;48.776;9.200;2023-06-22T14:52:21;13.55;;;4.30;;
9485;SDS011;4781;48.776;9.200;2023-06-22T14:54:49;11.03;;;4.30;;
9485;SDS011;4781;48.776;9.200;2023-06-22T14:57:18;20.30;;;4.25;;
9485;SDS011;4781;48.776;9.200;2023-06-22T14:59:48;16.32;;;4.05;;
9485;SDS011;4781;48.776;9.200;2023-06-22T15:02:17;16.23;;;3.87;;
9485;SDS011;4781;48.776;9.200;2023-06-22T15:04:45;17.10;;;4.53;;
9485;SDS011;4781;48.776;9.200;2023-06-22T15:07:14;12.58;;;3.50;;
9485;SDS011;4781;48.776;9.200;2023-06-22T15:09:44;16.97;;;4.05;;
9485;SDS011;4781;48.776;9.200;2023-06-22T15:12:13;12.33;;;3.67;;
9485;SDS011;4781;48.776;9.200;2023-06-22T15:14:41;17.60;;;4.12;;
9485;SDS011;4781;48.776;9.200;2023-06-22T15:17:10;14.73;;;3.70;;